This is the latest recevied weather packets stored in our database for station/object JH1CWL-13. If no packets are shown the sender has not sent any weather packets the latest 10 day(s).
| Time | Temp. | Humidity | Pressure | Rain* | Wind** | Luminosity | Snow |
|---|---|---|---|---|---|---|---|
| 1777876525 | 21.67° C | 71% | 995.8 hPa | 0 mm | - | - | - |
| 1777875325 | 21.11° C | 72% | 995.6 hPa | 0 mm | - | - | - |
| 1777874126 | 21.67° C | 71% | 995.5 hPa | 0 mm | - | - | - |
| 1777872925 | 22.22° C | 70% | 995.5 hPa | 0 mm | - | - | - |
| 1777871726 | 22.22° C | 70% | 995.6 hPa | 0 mm | - | - | - |
| 1777870526 | 22.22° C | 70% | 995.9 hPa | 0 mm | - | - | - |
| 1777869325 | 22.78° C | 70% | 995.9 hPa | 0 mm | - | - | - |
| 1777868125 | 22.78° C | 70% | 996.1 hPa | 0 mm | - | - | - |
| 1777866924 | 22.78° C | 70% | 996.5 hPa | 0 mm | - | - | - |
| 1777865725 | 23.33° C | 69% | 996.6 hPa | 0 mm | - | - | - |
| 1777864526 | 23.33° C | 69% | 996.5 hPa | 0 mm | - | - | - |
| 1777863325 | 23.33° C | 72% | 997 hPa | 0 mm | - | - | - |
| 1777862125 | 23.33° C | 74% | 997.2 hPa | 0 mm | - | - | - |
| 1777860926 | 22.78° C | 74% | 997.1 hPa | 0 mm | - | - | - |
| 1777859725 | 22.78° C | 75% | 997 hPa | 0 mm | - | - | - |
| 1777858524 | 22.78° C | 76% | 997.2 hPa | 0 mm | - | - | - |
| 1777857325 | 22.22° C | 76% | 997.2 hPa | 0 mm | - | - | - |
| 1777856124 | 22.22° C | 81% | 997.2 hPa | 0 mm | - | - | - |
| 1777854925 | 21.11° C | 88% | 997.1 hPa | 0 mm | - | - | - |
| 1777853725 | 20.56° C | 91% | 997.2 hPa | 0 mm | - | - | - |
| 1777852525 | 20.56° C | 92% | 997.1 hPa | 0 mm | - | - | - |
| 1777851325 | 20.56° C | 92% | 997.1 hPa | 0 mm | - | - | - |
| 1777850126 | 21.11° C | 91% | 997.8 hPa | 0 mm | - | - | - |
| 1777848925 | 21.67° C | 92% | 997.5 hPa | 0 mm | - | - | - |
| 1777847725 | 21.67° C | 92% | 997.4 hPa | 0 mm | - | - | - |
* Rain latest hour (hover to see other rain measurements)
** Current wind speed in m/s (hover to see current wind gust speed)